sensor_id;sensor_type;location;lat;lon;timestamp;temperature;humidity
25092;DHT22;13082;52.374;4.946;2023-03-11T00:00:26;3.40;99.90
25092;DHT22;13082;52.374;4.946;2023-03-11T00:02:53;3.40;99.90
25092;DHT22;13082;52.374;4.946;2023-03-11T00:07:50;3.40;99.90
25092;DHT22;13082;52.374;4.946;2023-03-11T00:10:18;3.40;99.90
25092;DHT22;13082;52.374;4.946;2023-03-11T00:12:44;3.40;99.90
25092;DHT22;13082;52.374;4.946;2023-03-11T00:15:11;3.40;99.90
25092;DHT22;13082;52.374;4.946;2023-03-11T00:17:36;3.30;99.90
25092;DHT22;13082;52.374;4.946;2023-03-11T00:20:04;3.40;99.90
25092;DHT22;13082;52.374;4.946;2023-03-11T00:22:31;3.30;99.90
25092;DHT22;13082;52.374;4.946;2023-03-11T00:24:57;3.30;99.90
25092;DHT22;13082;52.374;4.946;2023-03-11T00:27:22;3.20;99.90
25092;DHT22;13082;52.374;4.946;2023-03-11T00:29:48;3.20;99.90
25092;DHT22;13082;52.374;4.946;2023-03-11T00:32:13;3.20;99.90
25092;DHT22;13082;52.374;4.946;2023-03-11T00:34:39;3.30;99.90
25092;DHT22;13082;52.374;4.946;2023-03-11T00:37:05;3.20;99.90
25092;DHT22;13082;52.374;4.946;2023-03-11T00:39:30;3.20;99.90
25092;DHT22;13082;52.374;4.946;2023-03-11T00:41:56;3.20;99.90
25092;DHT22;13082;52.374;4.946;2023-03-11T00:44:22;3.20;99.90
25092;DHT22;13082;52.374;4.946;2023-03-11T00:46:47;3.20;99.90
25092;DHT22;13082;52.374;4.946;2023-03-11T00:49:13;3.20;99.90
25092;DHT22;13082;52.374;4.946;2023-03-11T00:51:39;3.30;99.90
25092;DHT22;13082;52.374;4.946;2023-03-11T00:54:04;3.30;99.90
25092;DHT22;13082;52.374;4.946;2023-03-11T00:56:30;3.30;99.90
25092;DHT22;13082;52.374;4.946;2023-03-11T00:58:56;3.20;99.90
25092;DHT22;13082;52.374;4.946;2023-03-11T01:01:22;3.20;99.90
25092;DHT22;13082;52.374;4.946;2023-03-11T01:03:47;3.20;99.90
25092;DHT22;13082;52.374;4.946;2023-03-11T01:06:13;3.20;99.90
25092;DHT22;13082;52.374;4.946;2023-03-11T01:08:39;3.20;99.90
25092;DHT22;13082;52.374;4.946;2023-03-11T01:11:07;3.20;99.90
25092;DHT22;13082;52.374;4.946;2023-03-11T01:13:33;3.20;99.90
25092;DHT22;13082;52.374;4.946;2023-03-11T01:15:59;3.10;99.90
25092;DHT22;13082;52.374;4.946;2023-03-11T01:18:25;3.10;99.90
25092;DHT22;13082;52.374;4.946;2023-03-11T01:20:51;3.10;99.90
25092;DHT22;13082;52.374;4.946;2023-03-11T01:23:18;3.10;99.90
25092;DHT22;13082;52.374;4.946;2023-03-11T01:25:44;3.10;99.90
25092;DHT22;13082;52.374;4.946;2023-03-11T01:28:10;3.10;99.90
25092;DHT22;13082;52.374;4.946;2023-03-11T01:30:38;3.10;99.90
25092;DHT22;13082;52.374;4.946;2023-03-11T01:33:06;3.10;99.90
25092;DHT22;13082;52.374;4.946;2023-03-11T01:35:32;3.20;99.90
25092;DHT22;13082;52.374;4.946;2023-03-11T01:37:58;3.20;99.90
25092;DHT22;13082;52.374;4.946;2023-03-11T01:40:31;3.10;99.90
25092;DHT22;13082;52.374;4.946;2023-03-11T01:42:59;3.10;99.90
25092;DHT22;13082;52.374;4.946;2023-03-11T01:45:41;3.00;99.90
25092;DHT22;13082;52.374;4.946;2023-03-11T01:48:26;3.00;99.90
25092;DHT22;13082;52.374;4.946;2023-03-11T01:50:52;3.10;99.90
25092;DHT22;13082;52.374;4.946;2023-03-11T01:53:18;3.10;99.90
25092;DHT22;13082;52.374;4.946;2023-03-11T01:55:45;3.10;99.90
25092;DHT22;13082;52.374;4.946;2023-03-11T01:58:14;3.10;99.90
25092;DHT22;13082;52.374;4.946;2023-03-11T02:00:41;3.10;99.90
25092;DHT22;13082;52.374;4.946;2023-03-11T02:03:31;3.10;99.90
25092;DHT22;13082;52.374;4.946;2023-03-11T02:06:00;3.10;99.90
25092;DHT22;13082;52.374;4.946;2023-03-11T02:08:26;3.10;99.90
25092;DHT22;13082;52.374;4.946;2023-03-11T02:10:54;3.10;99.90
25092;DHT22;13082;52.374;4.946;2023-03-11T02:13:21;3.10;99.90
25092;DHT22;13082;52.374;4.946;2023-03-11T02:15:47;3.10;99.90
25092;DHT22;13082;52.374;4.946;2023-03-11T02:18:14;3.10;99.90
25092;DHT22;13082;52.374;4.946;2023-03-11T02:24:09;3.20;99.90
25092;DHT22;13082;52.374;4.946;2023-03-11T02:26:59;3.20;99.90
25092;DHT22;13082;52.374;4.946;2023-03-11T02:29:27;3.20;99.90
25092;DHT22;13082;52.374;4.946;2023-03-11T02:31:54;3.20;99.90
25092;DHT22;13082;52.374;4.946;2023-03-11T02:34:26;3.20;99.90
25092;DHT22;13082;52.374;4.946;2023-03-11T02:36:53;3.20;99.90
25092;DHT22;13082;52.374;4.946;2023-03-11T02:39:49;3.10;99.90
25092;DHT22;13082;52.374;4.946;2023-03-11T02:42:23;3.10;99.90
25092;DHT22;13082;52.374;4.946;2023-03-11T02:45:10;3.10;99.90
25092;DHT22;13082;52.374;4.946;2023-03-11T02:47:38;3.10;99.90
25092;DHT22;13082;52.374;4.946;2023-03-11T02:50:05;3.10;99.90
25092;DHT22;13082;52.374;4.946;2023-03-11T02:52:33;3.10;99.90
25092;DHT22;13082;52.374;4.946;2023-03-11T02:54:59;3.10;99.90
25092;DHT22;13082;52.374;4.946;2023-03-11T02:57:24;3.10;99.90
25092;DHT22;13082;52.374;4.946;2023-03-11T02:59:50;3.10;99.90
25092;DHT22;13082;52.374;4.946;2023-03-11T03:02:16;3.10;99.90
25092;DHT22;13082;52.374;4.946;2023-03-11T03:04:42;3.10;99.90
25092;DHT22;13082;52.374;4.946;2023-03-11T03:07:07;3.10;99.90
25092;DHT22;13082;52.374;4.946;2023-03-11T03:09:34;3.20;99.90
25092;DHT22;13082;52.374;4.946;2023-03-11T03:12:00;3.10;99.90
25092;DHT22;13082;52.374;4.946;2023-03-11T03:14:26;3.10;99.90
25092;DHT22;13082;52.374;4.946;2023-03-11T03:16:51;3.10;99.90
25092;DHT22;13082;52.374;4.946;2023-03-11T03:19:17;3.10;99.90
25092;DHT22;13082;52.374;4.946;2023-03-11T03:21:43;3.10;99.90
25092;DHT22;13082;52.374;4.946;2023-03-11T03:24:08;3.00;99.90
25092;DHT22;13082;52.374;4.946;2023-03-11T03:26:35;3.00;99.90
25092;DHT22;13082;52.374;4.946;2023-03-11T03:29:01;3.00;99.90
25092;DHT22;13082;52.374;4.946;2023-03-11T03:31:26;3.00;99.90
25092;DHT22;13082;52.374;4.946;2023-03-11T03:33:52;3.00;99.90
25092;DHT22;13082;52.374;4.946;2023-03-11T03:36:18;3.00;99.90
25092;DHT22;13082;52.374;4.946;2023-03-11T03:38:43;3.10;99.90
25092;DHT22;13082;52.374;4.946;2023-03-11T03:41:11;3.00;99.90
25092;DHT22;13082;52.374;4.946;2023-03-11T03:43:37;3.00;99.90
25092;DHT22;13082;52.374;4.946;2023-03-11T03:46:04;3.00;99.90
25092;DHT22;13082;52.374;4.946;2023-03-11T03:48:30;3.00;99.90
25092;DHT22;13082;52.374;4.946;2023-03-11T03:50:55;3.00;99.90
25092;DHT22;13082;52.374;4.946;2023-03-11T03:53:21;3.00;99.90
25092;DHT22;13082;52.374;4.946;2023-03-11T03:55:47;3.00;99.90
25092;DHT22;13082;52.374;4.946;2023-03-11T03:58:14;3.00;99.90
25092;DHT22;13082;52.374;4.946;2023-03-11T04:00:39;3.00;99.90
25092;DHT22;13082;52.374;4.946;2023-03-11T04:03:05;3.00;99.90
25092;DHT22;13082;52.374;4.946;2023-03-11T04:05:31;3.00;99.90
25092;DHT22;13082;52.374;4.946;2023-03-11T04:07:57;3.10;99.90
25092;DHT22;13082;52.374;4.946;2023-03-11T04:10:23;3.10;99.90
25092;DHT22;13082;52.374;4.946;2023-03-11T04:12:48;3.10;99.90
25092;DHT22;13082;52.374;4.946;2023-03-11T04:15:14;3.00;99.90
25092;DHT22;13082;52.374;4.946;2023-03-11T04:17:39;3.00;99.90
25092;DHT22;13082;52.374;4.946;2023-03-11T04:20:06;3.00;99.90
25092;DHT22;13082;52.374;4.946;2023-03-11T04:22:32;3.00;99.90
25092;DHT22;13082;52.374;4.946;2023-03-11T04:24:58;3.00;99.90
25092;DHT22;13082;52.374;4.946;2023-03-11T04:27:24;3.00;99.90
25092;DHT22;13082;52.374;4.946;2023-03-11T04:29:50;3.00;99.90
25092;DHT22;13082;52.374;4.946;2023-03-11T04:32:15;3.00;99.90
25092;DHT22;13082;52.374;4.946;2023-03-11T04:34:41;3.00;99.90
25092;DHT22;13082;52.374;4.946;2023-03-11T04:37:07;3.00;99.90
25092;DHT22;13082;52.374;4.946;2023-03-11T04:39:33;3.00;99.90
25092;DHT22;13082;52.374;4.946;2023-03-11T04:41:58;3.00;99.90
25092;DHT22;13082;52.374;4.946;2023-03-11T04:44:24;3.00;99.90
25092;DHT22;13082;52.374;4.946;2023-03-11T04:46:50;2.90;99.90
25092;DHT22;13082;52.374;4.946;2023-03-11T04:49:16;2.90;99.90
25092;DHT22;13082;52.374;4.946;2023-03-11T04:51:41;2.90;99.90
25092;DHT22;13082;52.374;4.946;2023-03-11T04:54:07;2.90;99.90
25092;DHT22;13082;52.374;4.946;2023-03-11T04:56:33;2.90;99.90
25092;DHT22;13082;52.374;4.946;2023-03-11T04:58:59;2.90;99.90
25092;DHT22;13082;52.374;4.946;2023-03-11T05:01:25;2.90;99.90
25092;DHT22;13082;52.374;4.946;2023-03-11T05:03:50;2.90;99.90
25092;DHT22;13082;52.374;4.946;2023-03-11T05:06:16;2.80;99.90
25092;DHT22;13082;52.374;4.946;2023-03-11T05:08:42;2.80;99.90
25092;DHT22;13082;52.374;4.946;2023-03-11T05:11:07;2.80;99.90
25092;DHT22;13082;52.374;4.946;2023-03-11T05:13:33;2.80;99.90
25092;DHT22;13082;52.374;4.946;2023-03-11T05:15:59;2.80;99.90
25092;DHT22;13082;52.374;4.946;2023-03-11T05:18:25;2.80;99.90
25092;DHT22;13082;52.374;4.946;2023-03-11T05:20:51;2.80;99.90
25092;DHT22;13082;52.374;4.946;2023-03-11T05:23:17;2.70;99.90
25092;DHT22;13082;52.374;4.946;2023-03-11T05:25:43;2.70;99.90
25092;DHT22;13082;52.374;4.946;2023-03-11T05:28:09;2.70;99.90
25092;DHT22;13082;52.374;4.946;2023-03-11T05:30:34;2.70;99.90
25092;DHT22;13082;52.374;4.946;2023-03-11T05:33:00;2.70;99.90
25092;DHT22;13082;52.374;4.946;2023-03-11T05:35:26;2.70;99.90
25092;DHT22;13082;52.374;4.946;2023-03-11T05:37:51;2.70;99.90
25092;DHT22;13082;52.374;4.946;2023-03-11T05:40:18;2.70;99.90
25092;DHT22;13082;52.374;4.946;2023-03-11T05:42:44;2.70;99.90
25092;DHT22;13082;52.374;4.946;2023-03-11T05:45:09;2.70;99.90
25092;DHT22;13082;52.374;4.946;2023-03-11T05:47:35;2.70;99.90
25092;DHT22;13082;52.374;4.946;2023-03-11T05:50:01;2.70;99.90
25092;DHT22;13082;52.374;4.946;2023-03-11T05:52:26;2.70;99.90
25092;DHT22;13082;52.374;4.946;2023-03-11T05:54:52;2.70;99.90
25092;DHT22;13082;52.374;4.946;2023-03-11T05:57:18;2.60;99.90
25092;DHT22;13082;52.374;4.946;2023-03-11T05:59:44;2.60;99.90
25092;DHT22;13082;52.374;4.946;2023-03-11T06:02:10;2.60;99.90
25092;DHT22;13082;52.374;4.946;2023-03-11T06:04:36;2.60;99.90
25092;DHT22;13082;52.374;4.946;2023-03-11T06:07:03;2.60;99.90
25092;DHT22;13082;52.374;4.946;2023-03-11T06:09:28;2.70;99.90
25092;DHT22;13082;52.374;4.946;2023-03-11T06:11:54;2.70;99.90
25092;DHT22;13082;52.374;4.946;2023-03-11T06:14:20;2.70;99.90
25092;DHT22;13082;52.374;4.946;2023-03-11T06:16:45;2.70;99.90
25092;DHT22;13082;52.374;4.946;2023-03-11T06:19:11;2.80;99.90
25092;DHT22;13082;52.374;4.946;2023-03-11T06:21:37;2.80;99.90
25092;DHT22;13082;52.374;4.946;2023-03-11T06:24:03;2.70;99.90
25092;DHT22;13082;52.374;4.946;2023-03-11T06:26:28;2.70;99.90
25092;DHT22;13082;52.374;4.946;2023-03-11T06:28:54;2.70;99.90
25092;DHT22;13082;52.374;4.946;2023-03-11T06:31:25;2.70;99.90
25092;DHT22;13082;52.374;4.946;2023-03-11T06:33:52;2.80;99.90
25092;DHT22;13082;52.374;4.946;2023-03-11T06:36:18;2.80;99.90
25092;DHT22;13082;52.374;4.946;2023-03-11T06:38:44;2.80;99.90
25092;DHT22;13082;52.374;4.946;2023-03-11T06:41:14;2.90;99.90
25092;DHT22;13082;52.374;4.946;2023-03-11T06:43:40;2.90;99.90
25092;DHT22;13082;52.374;4.946;2023-03-11T06:46:10;3.00;99.90
25092;DHT22;13082;52.374;4.946;2023-03-11T06:48:36;3.10;99.90
25092;DHT22;13082;52.374;4.946;2023-03-11T06:51:02;3.10;99.90
25092;DHT22;13082;52.374;4.946;2023-03-11T06:53:28;3.10;99.90
25092;DHT22;13082;52.374;4.946;2023-03-11T06:56:12;3.10;99.90
25092;DHT22;13082;52.374;4.946;2023-03-11T06:58:40;3.20;99.90
25092;DHT22;13082;52.374;4.946;2023-03-11T07:01:12;3.10;99.90
25092;DHT22;13082;52.374;4.946;2023-03-11T07:03:46;3.20;99.90
25092;DHT22;13082;52.374;4.946;2023-03-11T07:06:20;3.20;99.90
25092;DHT22;13082;52.374;4.946;2023-03-11T07:08:49;3.20;99.90
25092;DHT22;13082;52.374;4.946;2023-03-11T07:11:26;3.20;99.90
25092;DHT22;13082;52.374;4.946;2023-03-11T07:13:53;3.20;99.90
25092;DHT22;13082;52.374;4.946;2023-03-11T07:16:21;3.30;99.90
25092;DHT22;13082;52.374;4.946;2023-03-11T07:18:48;3.40;99.90
25092;DHT22;13082;52.374;4.946;2023-03-11T07:21:17;3.50;99.90
25092;DHT22;13082;52.374;4.946;2023-03-11T07:23:43;3.60;99.90
25092;DHT22;13082;52.374;4.946;2023-03-11T07:26:11;3.70;99.90
25092;DHT22;13082;52.374;4.946;2023-03-11T07:28:37;3.80;99.90
25092;DHT22;13082;52.374;4.946;2023-03-11T07:31:10;3.90;99.90
25092;DHT22;13082;52.374;4.946;2023-03-11T07:33:36;4.00;99.90
25092;DHT22;13082;52.374;4.946;2023-03-11T07:36:10;4.10;99.90
25092;DHT22;13082;52.374;4.946;2023-03-11T07:38:36;4.30;99.90
25092;DHT22;13082;52.374;4.946;2023-03-11T07:41:03;4.40;99.90
25092;DHT22;13082;52.374;4.946;2023-03-11T07:43:29;4.50;99.90
25092;DHT22;13082;52.374;4.946;2023-03-11T07:46:06;4.60;99.90
25092;DHT22;13082;52.374;4.946;2023-03-11T07:48:33;4.60;99.90
25092;DHT22;13082;52.374;4.946;2023-03-11T07:51:04;4.70;99.90
25092;DHT22;13082;52.374;4.946;2023-03-11T07:53:30;4.70;99.90
25092;DHT22;13082;52.374;4.946;2023-03-11T07:55:57;4.70;99.90
25092;DHT22;13082;52.374;4.946;2023-03-11T07:58:23;4.80;99.90
25092;DHT22;13082;52.374;4.946;2023-03-11T08:00:49;4.80;99.90
25092;DHT22;13082;52.374;4.946;2023-03-11T08:03:15;4.90;99.90
25092;DHT22;13082;52.374;4.946;2023-03-11T08:05:40;5.00;99.90
25092;DHT22;13082;52.374;4.946;2023-03-11T08:08:06;5.00;99.90
25092;DHT22;13082;52.374;4.946;2023-03-11T08:10:34;5.00;99.90
25092;DHT22;13082;52.374;4.946;2023-03-11T08:13:00;5.10;99.90
25092;DHT22;13082;52.374;4.946;2023-03-11T08:15:25;5.10;99.90
25092;DHT22;13082;52.374;4.946;2023-03-11T08:17:51;5.30;99.90
25092;DHT22;13082;52.374;4.946;2023-03-11T08:20:17;5.40;99.90
25092;DHT22;13082;52.374;4.946;2023-03-11T08:22:42;5.50;99.90
25092;DHT22;13082;52.374;4.946;2023-03-11T08:25:08;5.60;99.90
25092;DHT22;13082;52.374;4.946;2023-03-11T08:27:34;5.60;99.90
25092;DHT22;13082;52.374;4.946;2023-03-11T08:29:59;5.60;99.90
25092;DHT22;13082;52.374;4.946;2023-03-11T08:32:25;5.60;99.90
25092;DHT22;13082;52.374;4.946;2023-03-11T08:34:50;5.60;99.90
25092;DHT22;13082;52.374;4.946;2023-03-11T08:37:16;5.50;99.90
25092;DHT22;13082;52.374;4.946;2023-03-11T08:39:41;5.50;99.90
25092;DHT22;13082;52.374;4.946;2023-03-11T08:42:07;5.60;99.90
25092;DHT22;13082;52.374;4.946;2023-03-11T08:44:33;5.70;99.90
25092;DHT22;13082;52.374;4.946;2023-03-11T08:46:59;5.90;99.90
25092;DHT22;13082;52.374;4.946;2023-03-11T08:49:25;6.00;99.90
25092;DHT22;13082;52.374;4.946;2023-03-11T08:51:51;6.10;99.90
25092;DHT22;13082;52.374;4.946;2023-03-11T08:54:16;6.10;99.90
25092;DHT22;13082;52.374;4.946;2023-03-11T08:56:42;6.10;99.90
25092;DHT22;13082;52.374;4.946;2023-03-11T08:59:07;6.20;99.90
25092;DHT22;13082;52.374;4.946;2023-03-11T09:01:33;6.30;99.90
25092;DHT22;13082;52.374;4.946;2023-03-11T09:03:59;6.30;99.90
25092;DHT22;13082;52.374;4.946;2023-03-11T09:06:24;6.30;99.90
25092;DHT22;13082;52.374;4.946;2023-03-11T09:08:50;6.30;99.90
25092;DHT22;13082;52.374;4.946;2023-03-11T09:11:17;6.20;99.90
25092;DHT22;13082;52.374;4.946;2023-03-11T09:13:43;6.30;99.90
25092;DHT22;13082;52.374;4.946;2023-03-11T09:16:12;6.30;99.90
25092;DHT22;13082;52.374;4.946;2023-03-11T09:18:38;6.30;99.90
25092;DHT22;13082;52.374;4.946;2023-03-11T09:21:03;6.20;99.90
25092;DHT22;13082;52.374;4.946;2023-03-11T09:23:29;6.30;99.90
25092;DHT22;13082;52.374;4.946;2023-03-11T09:25:55;6.30;99.90
25092;DHT22;13082;52.374;4.946;2023-03-11T09:28:20;6.40;99.90
25092;DHT22;13082;52.374;4.946;2023-03-11T09:30:46;6.50;99.90
25092;DHT22;13082;52.374;4.946;2023-03-11T09:33:11;6.60;99.90
25092;DHT22;13082;52.374;4.946;2023-03-11T09:35:38;6.60;99.90
25092;DHT22;13082;52.374;4.946;2023-03-11T09:38:04;6.70;99.90
25092;DHT22;13082;52.374;4.946;2023-03-11T09:40:50;6.80;99.90
25092;DHT22;13082;52.374;4.946;2023-03-11T09:43:43;6.90;99.90
25092;DHT22;13082;52.374;4.946;2023-03-11T09:48:59;7.20;99.90
25092;DHT22;13082;52.374;4.946;2023-03-11T09:51:35;7.30;99.90
25092;DHT22;13082;52.374;4.946;2023-03-11T09:54:04;7.40;99.90
25092;DHT22;13082;52.374;4.946;2023-03-11T09:56:32;7.20;99.90
25092;DHT22;13082;52.374;4.946;2023-03-11T09:59:13;7.00;99.90
25092;DHT22;13082;52.374;4.946;2023-03-11T10:01:48;6.80;99.90
25092;DHT22;13082;52.374;4.946;2023-03-11T10:04:30;6.60;99.90
25092;DHT22;13082;52.374;4.946;2023-03-11T10:07:00;6.60;99.90
25092;DHT22;13082;52.374;4.946;2023-03-11T10:09:36;6.60;99.90
25092;DHT22;13082;52.374;4.946;2023-03-11T10:28:46;6.70;99.90
25092;DHT22;13082;52.374;4.946;2023-03-11T10:31:43;6.80;99.90
25092;DHT22;13082;52.374;4.946;2023-03-11T10:34:17;6.80;99.90
25092;DHT22;13082;52.374;4.946;2023-03-11T10:37:16;6.70;99.90
25092;DHT22;13082;52.374;4.946;2023-03-11T10:39:46;6.70;99.90
25092;DHT22;13082;52.374;4.946;2023-03-11T10:42:17;6.70;99.90
25092;DHT22;13082;52.374;4.946;2023-03-11T10:44:45;6.80;99.90
25092;DHT22;13082;52.374;4.946;2023-03-11T10:47:24;7.00;99.90
25092;DHT22;13082;52.374;4.946;2023-03-11T10:49:50;7.20;99.90
25092;DHT22;13082;52.374;4.946;2023-03-11T10:52:17;7.30;99.90
25092;DHT22;13082;52.374;4.946;2023-03-11T10:54:47;7.50;99.90
25092;DHT22;13082;52.374;4.946;2023-03-11T10:57:24;7.50;99.90
25092;DHT22;13082;52.374;4.946;2023-03-11T10:59:55;7.60;99.90
25092;DHT22;13082;52.374;4.946;2023-03-11T11:02:32;7.70;99.90
25092;DHT22;13082;52.374;4.946;2023-03-11T11:05:07;7.70;99.90
25092;DHT22;13082;52.374;4.946;2023-03-11T11:07:47;7.80;99.90
25092;DHT22;13082;52.374;4.946;2023-03-11T11:13:02;7.90;99.90
25092;DHT22;13082;52.374;4.946;2023-03-11T11:23:46;8.30;99.90
25092;DHT22;13082;52.374;4.946;2023-03-11T11:26:24;8.40;99.90
25092;DHT22;13082;52.374;4.946;2023-03-11T11:31:36;8.20;99.90
25092;DHT22;13082;52.374;4.946;2023-03-11T11:34:02;8.10;99.90
25092;DHT22;13082;52.374;4.946;2023-03-11T11:36:30;8.10;99.90
25092;DHT22;13082;52.374;4.946;2023-03-11T11:38:58;8.20;99.90
25092;DHT22;13082;52.374;4.946;2023-03-11T11:41:25;8.30;99.90
25092;DHT22;13082;52.374;4.946;2023-03-11T11:44:02;8.20;99.90
25092;DHT22;13082;52.374;4.946;2023-03-11T11:46:35;8.40;99.90
25092;DHT22;13082;52.374;4.946;2023-03-11T11:49:23;8.50;99.90
25092;DHT22;13082;52.374;4.946;2023-03-11T11:52:11;8.60;99.90
25092;DHT22;13082;52.374;4.946;2023-03-11T11:57:27;8.50;99.90
25092;DHT22;13082;52.374;4.946;2023-03-11T11:59:53;8.40;99.90
25092;DHT22;13082;52.374;4.946;2023-03-11T12:05:30;8.50;99.90
25092;DHT22;13082;52.374;4.946;2023-03-11T12:08:20;8.60;99.90
25092;DHT22;13082;52.374;4.946;2023-03-11T12:11:00;8.40;99.90
25092;DHT22;13082;52.374;4.946;2023-03-11T12:27:11;8.00;99.90
25092;DHT22;13082;52.374;4.946;2023-03-11T12:29:43;8.20;99.90
25092;DHT22;13082;52.374;4.946;2023-03-11T12:32:22;8.20;99.90
25092;DHT22;13082;52.374;4.946;2023-03-11T12:34:49;8.10;99.90
25092;DHT22;13082;52.374;4.946;2023-03-11T12:37:17;8.00;99.90
25092;DHT22;13082;52.374;4.946;2023-03-11T12:39:45;8.00;99.90
25092;DHT22;13082;52.374;4.946;2023-03-11T12:44:37;7.90;99.90
25092;DHT22;13082;52.374;4.946;2023-03-11T12:47:17;7.80;99.90
25092;DHT22;13082;52.374;4.946;2023-03-11T12:49:46;7.70;99.90
25092;DHT22;13082;52.374;4.946;2023-03-11T12:57:49;7.70;99.90
25092;DHT22;13082;52.374;4.946;2023-03-11T13:08:19;8.10;99.90
25092;DHT22;13082;52.374;4.946;2023-03-11T13:10:50;8.10;99.90
25092;DHT22;13082;52.374;4.946;2023-03-11T13:15:54;8.20;99.90
25092;DHT22;13082;52.374;4.946;2023-03-11T13:18:27;8.20;99.90
25092;DHT22;13082;52.374;4.946;2023-03-11T13:21:02;8.20;99.90
25092;DHT22;13082;52.374;4.946;2023-03-11T13:23:38;8.40;99.90
25092;DHT22;13082;52.374;4.946;2023-03-11T13:26:32;8.60;99.90
25092;DHT22;13082;52.374;4.946;2023-03-11T13:35:04;8.60;99.90
25092;DHT22;13082;52.374;4.946;2023-03-11T13:40:38;8.80;99.90
25092;DHT22;13082;52.374;4.946;2023-03-11T13:43:10;8.80;99.90
25092;DHT22;13082;52.374;4.946;2023-03-11T13:45:37;8.80;99.90
25092;DHT22;13082;52.374;4.946;2023-03-11T13:48:34;8.70;99.90
25092;DHT22;13082;52.374;4.946;2023-03-11T13:51:36;8.60;99.90
25092;DHT22;13082;52.374;4.946;2023-03-11T13:56:54;8.30;99.90
25092;DHT22;13082;52.374;4.946;2023-03-11T13:59:22;8.30;99.90
25092;DHT22;13082;52.374;4.946;2023-03-11T14:01:56;8.30;99.90
25092;DHT22;13082;52.374;4.946;2023-03-11T14:04:29;8.30;99.90
25092;DHT22;13082;52.374;4.946;2023-03-11T14:06:54;8.10;99.90
25092;DHT22;13082;52.374;4.946;2023-03-11T14:09:22;8.00;99.90
25092;DHT22;13082;52.374;4.946;2023-03-11T14:11:48;7.80;99.90
25092;DHT22;13082;52.374;4.946;2023-03-11T14:14:43;7.80;99.90
25092;DHT22;13082;52.374;4.946;2023-03-11T14:17:14;7.80;99.90
25092;DHT22;13082;52.374;4.946;2023-03-11T14:19:41;7.80;99.90
25092;DHT22;13082;52.374;4.946;2023-03-11T14:22:08;7.90;99.90
25092;DHT22;13082;52.374;4.946;2023-03-11T14:24:35;7.90;99.90
25092;DHT22;13082;52.374;4.946;2023-03-11T14:27:06;8.00;99.90
25092;DHT22;13082;52.374;4.946;2023-03-11T14:29:35;8.00;99.90
25092;DHT22;13082;52.374;4.946;2023-03-11T14:32:34;8.00;99.90
25092;DHT22;13082;52.374;4.946;2023-03-11T14:35:00;8.00;99.90
25092;DHT22;13082;52.374;4.946;2023-03-11T14:37:29;7.90;99.90
25092;DHT22;13082;52.374;4.946;2023-03-11T14:39:55;7.90;99.90
25092;DHT22;13082;52.374;4.946;2023-03-11T14:50:13;7.80;99.90
25092;DHT22;13082;52.374;4.946;2023-03-11T14:52:49;7.80;99.90
25092;DHT22;13082;52.374;4.946;2023-03-11T14:55:29;7.80;99.90
25092;DHT22;13082;52.374;4.946;2023-03-11T15:01:13;7.90;99.90
25092;DHT22;13082;52.374;4.946;2023-03-11T15:06:26;8.20;99.90
25092;DHT22;13082;52.374;4.946;2023-03-11T15:09:01;8.20;99.90
25092;DHT22;13082;52.374;4.946;2023-03-11T15:11:28;8.00;99.90
25092;DHT22;13082;52.374;4.946;2023-03-11T15:14:12;8.00;99.90
25092;DHT22;13082;52.374;4.946;2023-03-11T15:16:41;7.90;99.90
25092;DHT22;13082;52.374;4.946;2023-03-11T15:21:56;7.70;99.90
25092;DHT22;13082;52.374;4.946;2023-03-11T15:24:29;7.60;99.90
25092;DHT22;13082;52.374;4.946;2023-03-11T15:27:07;7.60;99.90
25092;DHT22;13082;52.374;4.946;2023-03-11T15:29:49;7.50;99.90
25092;DHT22;13082;52.374;4.946;2023-03-11T15:37:38;7.50;99.90
25092;DHT22;13082;52.374;4.946;2023-03-11T15:42:43;7.60;99.90
25092;DHT22;13082;52.374;4.946;2023-03-11T15:45:12;7.50;99.90
25092;DHT22;13082;52.374;4.946;2023-03-11T15:47:39;7.40;99.90
25092;DHT22;13082;52.374;4.946;2023-03-11T15:50:20;7.60;99.90
25092;DHT22;13082;52.374;4.946;2023-03-11T15:52:49;7.70;99.90
25092;DHT22;13082;52.374;4.946;2023-03-11T15:55:15;7.70;99.90
25092;DHT22;13082;52.374;4.946;2023-03-11T15:57:41;7.60;99.90
25092;DHT22;13082;52.374;4.946;2023-03-11T16:00:18;7.50;99.90
25092;DHT22;13082;52.374;4.946;2023-03-11T16:02:45;7.50;99.90
25092;DHT22;13082;52.374;4.946;2023-03-11T16:05:19;7.40;99.90
25092;DHT22;13082;52.374;4.946;2023-03-11T16:07:45;7.40;99.90
25092;DHT22;13082;52.374;4.946;2023-03-11T16:10:13;7.40;99.90
25092;DHT22;13082;52.374;4.946;2023-03-11T16:12:39;7.40;99.90
25092;DHT22;13082;52.374;4.946;2023-03-11T16:15:27;7.40;99.90
25092;DHT22;13082;52.374;4.946;2023-03-11T16:17:56;7.40;99.90
25092;DHT22;13082;52.374;4.946;2023-03-11T16:20:23;7.30;99.90
25092;DHT22;13082;52.374;4.946;2023-03-11T16:22:54;7.30;99.90
25092;DHT22;13082;52.374;4.946;2023-03-11T16:25:32;7.30;99.90
25092;DHT22;13082;52.374;4.946;2023-03-11T16:27:59;7.20;99.90
25092;DHT22;13082;52.374;4.946;2023-03-11T16:30:27;7.20;99.90
25092;DHT22;13082;52.374;4.946;2023-03-11T16:32:52;7.30;99.90
25092;DHT22;13082;52.374;4.946;2023-03-11T16:35:18;7.30;99.90
25092;DHT22;13082;52.374;4.946;2023-03-11T16:37:44;7.30;99.90
25092;DHT22;13082;52.374;4.946;2023-03-11T16:40:29;7.20;99.90
25092;DHT22;13082;52.374;4.946;2023-03-11T16:43:07;7.20;99.90
25092;DHT22;13082;52.374;4.946;2023-03-11T16:45:33;7.20;99.90
25092;DHT22;13082;52.374;4.946;2023-03-11T16:47:59;7.00;99.90
25092;DHT22;13082;52.374;4.946;2023-03-11T16:50:25;7.00;99.90
25092;DHT22;13082;52.374;4.946;2023-03-11T16:52:55;6.90;99.90
25092;DHT22;13082;52.374;4.946;2023-03-11T16:55:21;6.90;99.90
25092;DHT22;13082;52.374;4.946;2023-03-11T16:57:47;6.80;99.90
25092;DHT22;13082;52.374;4.946;2023-03-11T17:00:13;6.80;99.90
25092;DHT22;13082;52.374;4.946;2023-03-11T17:02:39;6.80;99.90
25092;DHT22;13082;52.374;4.946;2023-03-11T17:05:06;6.80;99.90
25092;DHT22;13082;52.374;4.946;2023-03-11T17:07:32;6.70;99.90
25092;DHT22;13082;52.374;4.946;2023-03-11T17:09:58;6.70;99.90
25092;DHT22;13082;52.374;4.946;2023-03-11T17:12:24;6.70;99.90
25092;DHT22;13082;52.374;4.946;2023-03-11T17:14:51;6.60;99.90
25092;DHT22;13082;52.374;4.946;2023-03-11T17:17:17;6.60;99.90
25092;DHT22;13082;52.374;4.946;2023-03-11T17:19:43;6.60;99.90
25092;DHT22;13082;52.374;4.946;2023-03-11T17:22:09;6.60;99.90
25092;DHT22;13082;52.374;4.946;2023-03-11T17:24:35;6.60;99.90
25092;DHT22;13082;52.374;4.946;2023-03-11T17:27:02;6.60;99.90
25092;DHT22;13082;52.374;4.946;2023-03-11T17:29:28;6.50;99.90
25092;DHT22;13082;52.374;4.946;2023-03-11T17:31:54;6.40;99.90
25092;DHT22;13082;52.374;4.946;2023-03-11T17:34:20;6.40;99.90
25092;DHT22;13082;52.374;4.946;2023-03-11T17:36:45;6.30;99.90
25092;DHT22;13082;52.374;4.946;2023-03-11T17:39:11;6.30;99.90
25092;DHT22;13082;52.374;4.946;2023-03-11T17:41:37;6.30;99.90
25092;DHT22;13082;52.374;4.946;2023-03-11T17:44:02;6.30;99.90
25092;DHT22;13082;52.374;4.946;2023-03-11T17:46:28;6.30;99.90
25092;DHT22;13082;52.374;4.946;2023-03-11T17:48:54;6.30;99.90